Time;durP1;ratioP1;P1;durP2;ratioP2;P2;SDS_P1;SDS_P2;PMS_P1;PMS_P2;Temp;Humidity;BMP_temperature;BMP_pressure;BME280_temperature;BME280_humidity;BME280_pressure;Samples;Min_cycle;Max_cycle;Signal;HPM_P1;HPM_P2
2021/12/15 00:00:37;;;;;;;13.15;6.13;;;;;;;9.22;67.93;102544.69;5030574;28;20048;-84
2021/12/15 00:03:30;;;;;;;12.82;6.05;;;;;;;9.22;68.18;102552.47;5032601;28;20118;-84
2021/12/15 00:05:57;;;;;;;10.95;5.55;;;;;;;9.24;67.56;102545.59;5039810;28;20090;-84
2021/12/15 00:08:26;;;;;;;11.85;6.10;;;;;;;9.27;67.98;102547.34;5018563;28;20035;-84
2021/12/15 00:14:01;;;;;;;12.63;5.57;;;;;;;9.19;68.27;102547.22;5010158;28;20759;-86
2021/12/15 00:16:33;;;;;;;11.00;6.10;;;;;;;9.15;68.01;102542.88;5030837;28;20534;-86
2021/12/15 00:19:36;;;;;;;15.35;6.72;;;;;;;9.21;68.34;102548.16;5033174;28;20053;-86
2021/12/15 00:22:17;;;;;;;12.68;6.05;;;;;;;9.18;68.29;102545.50;5005896;28;20092;-86
2021/12/15 00:24:43;;;;;;;11.20;6.03;;;;;;;9.23;68.27;102541.25;5026471;28;20559;-86
2021/12/15 00:27:28;;;;;;;10.82;5.20;;;;;;;9.20;68.28;102543.81;5017475;28;20041;-86
2021/12/15 00:32:59;;;;;;;12.93;5.00;;;;;;;9.21;68.12;102545.56;5023768;28;19959;-86
2021/12/15 00:35:55;;;;;;;12.07;5.35;;;;;;;9.16;67.91;102536.81;5024083;28;20018;-86
2021/12/15 00:38:42;;;;;;;12.50;5.28;;;;;;;9.28;68.17;102549.06;5010497;28;20045;-86
2021/12/15 00:41:14;;;;;;;15.02;5.40;;;;;;;9.21;68.09;102555.94;5012175;28;20036;-86
2021/12/15 00:44:03;;;;;;;11.75;5.30;;;;;;;9.23;68.15;102550.75;5032444;28;20529;-86
2021/12/15 00:46:57;;;;;;;13.18;6.13;;;;;;;9.28;67.81;102552.53;5008336;28;20053;-86
2021/12/15 00:49:23;;;;;;;14.55;5.95;;;;;;;9.21;68.19;102561.09;5032480;28;20037;-91
2021/12/15 00:51:54;;;;;;;11.77;5.20;;;;;;;9.20;68.47;102550.69;5033096;28;20111;-91
2021/12/15 00:54:23;;;;;;;11.60;5.10;;;;;;;9.17;68.21;102553.25;5026270;28;20513;-91
2021/12/15 00:57:23;;;;;;;;;;;;;;;;;;;;;
2021/12/15 01:00:20;;;;;;;11.27;4.60;;;;;;;9.17;69.06;102550.66;5010278;28;20075;-85
2021/12/15 01:02:56;;;;;;;9.40;4.50;;;;;;;9.16;69.02;102554.09;5029433;28;20029;-85
2021/12/15 01:05:56;;;;;;;9.48;4.95;;;;;;;9.18;68.99;102557.59;5005177;28;20038;-84
2021/12/15 01:08:45;;;;;;;11.15;4.60;;;;;;;9.10;69.05;102549.72;5011660;28;20643;-84
2021/12/15 01:21:17;;;;;;;10.70;5.10;;;;;;;9.14;69.62;102548.91;5028999;28;20043;-85
2021/12/15 01:24:22;;;;;;;8.20;4.55;;;;;;;9.12;69.92;102554.94;4972526;28;20051;-85
2021/12/15 01:27:27;;;;;;;7.68;4.00;;;;;;;9.10;70.06;102559.19;5024967;28;20758;-85
2021/12/15 01:30:24;;;;;;;6.75;3.70;;;;;;;9.12;69.76;102549.75;5028648;28;20051;-85
2021/12/15 01:33:38;;;;;;;5.63;2.92;;;;;;;9.11;69.30;102548.88;5042103;28;20025;-88
2021/12/15 01:37:03;;;;;;;;;;;;;;;;;;;;;
2021/12/15 01:43:50;;;;;;;5.55;2.50;;;;;;;9.26;69.28;102563.75;5007333;28;20875;-88
2021/12/15 01:46:55;;;;;;;5.18;2.13;;;;;;;9.17;69.73;102559.31;4926396;28;20046;-88
2021/12/15 01:50:10;;;;;;;4.93;2.47;;;;;;;9.23;69.06;102562.00;4969082;28;20527;-88
2021/12/15 02:00:11;;;;;;;2.75;1.73;;;;;;;9.09;70.20;102566.13;4978222;28;20478;-91
2021/12/15 02:06:44;;;;;;;;;;;;;;;;;;;;;
2021/12/15 02:13:10;;;;;;;;;;;;;;;;;;;;;
2021/12/15 02:16:17;;;;;;;2.55;1.30;;;;;;;9.20;69.59;102567.13;5032887;28;20051;-88
2021/12/15 02:22:17;;;;;;;1.75;1.17;;;;;;;9.08;70.09;102560.91;5035366;28;20048;-88
2021/12/15 02:24:51;;;;;;;2.53;1.48;;;;;;;9.17;70.19;102561.03;5034253;28;20394;-92
2021/12/15 02:27:16;;;;;;;2.30;1.08;;;;;;;9.17;70.04;102567.09;5013491;28;20045;-88
2021/12/15 02:30:26;;;;;;;2.75;1.30;;;;;;;9.18;69.64;102561.06;5018276;28;20426;-88
2021/12/15 02:33:38;;;;;;;1.55;0.95;;;;;;;9.14;70.20;102554.09;4999097;28;20760;-88
2021/12/15 02:39:09;;;;;;;1.08;0.88;;;;;;;9.26;69.35;102551.66;5030859;28;20102;-88
2021/12/15 02:41:55;;;;;;;1.52;1.00;;;;;;;9.22;69.14;102554.19;5044102;28;20033;-86
2021/12/15 02:44:46;;;;;;;1.80;1.00;;;;;;;9.16;69.91;102551.50;5024011;28;20568;-86
2021/12/15 02:47:15;;;;;;;1.17;1.08;;;;;;;9.22;69.63;102552.47;5017110;28;20079;-86
2021/12/15 02:50:00;;;;;;;1.73;0.85;;;;;;;9.19;69.74;102552.41;5028127;28;20108;-86
2021/12/15 02:52:27;;;;;;;2.53;1.08;;;;;;;9.15;69.60;102553.25;5046963;28;20140;-86
2021/12/15 02:54:59;;;;;;;1.10;0.77;;;;;;;9.26;69.32;102553.38;5023582;28;20816;-91
2021/12/15 02:57:40;;;;;;;2.15;0.70;;;;;;;9.25;68.83;102554.22;5019652;28;20041;-85
2021/12/15 03:00:16;;;;;;;0.88;0.60;;;;;;;9.23;68.41;102553.34;5028600;28;20515;-86
2021/12/15 03:03:39;;;;;;;2.15;0.50;;;;;;;9.26;68.50;102548.19;5039296;28;20374;-85
2021/12/15 03:06:14;;;;;;;0.70;0.50;;;;;;;9.26;67.69;102541.28;5035339;28;20045;-85
2021/12/15 03:17:12;;;;;;;0.57;0.40;;;;;;;9.38;65.96;102534.50;5022375;28;20056;-85
2021/12/15 03:19:38;;;;;;;1.98;0.50;;;;;;;9.24;67.46;102537.81;5040071;28;20666;-85
2021/12/15 03:22:04;;;;;;;1.85;0.40;;;;;;;9.27;67.45;102544.75;4986935;28;20072;-85
2021/12/15 03:25:14;;;;;;;0.50;0.40;;;;;;;9.30;67.20;102539.59;5012577;28;20095;-85
2021/12/15 03:36:00;;;;;;;0.47;0.47;;;;;;;9.37;66.38;102523.25;5030807;28;20339;-90
2021/12/15 03:38:27;;;;;;;1.58;0.40;;;;;;;9.36;66.30;102526.72;5016538;28;20098;-88
2021/12/15 03:40:53;;;;;;;0.65;0.40;;;;;;;9.36;66.95;102535.34;5022725;28;20414;-88
2021/12/15 03:43:45;;;;;;;0.60;0.30;;;;;;;9.39;66.17;102537.13;5030954;28;20042;-88
2021/12/15 03:49:55;;;;;;;0.40;0.30;;;;;;;9.28;66.45;102552.53;5046338;28;20051;-85
2021/12/15 03:53:02;;;;;;;0.35;0.30;;;;;;;9.27;67.48;102561.19;5012273;28;20046;-86
2021/12/15 03:55:43;;;;;;;0.30;0.30;;;;;;;9.25;66.61;102552.50;5019706;28;20051;-85
2021/12/15 03:58:22;;;;;;;0.50;0.30;;;;;;;9.24;67.44;102561.16;5045441;28;20082;-85
2021/12/15 04:01:00;;;;;;;0.38;0.28;;;;;;;9.29;67.42;102553.41;5012112;28;20037;-85
2021/12/15 04:03:49;;;;;;;0.95;0.40;;;;;;;9.20;67.96;102561.06;5032894;28;20037;-91
2021/12/15 04:06:38;;;;;;;0.38;0.30;;;;;;;9.22;68.33;102562.84;5017579;28;20627;-86
2021/12/15 04:09:06;;;;;;;0.65;0.50;;;;;;;9.23;68.33;102566.31;5041028;28;20090;-86
2021/12/15 04:11:39;;;;;;;2.15;0.40;;;;;;;9.27;67.36;102563.78;5026467;28;20032;-88
2021/12/15 04:14:09;;;;;;;0.50;0.30;;;;;;;9.21;68.18;102563.72;5042991;28;20049;-88
2021/12/15 04:19:08;;;;;;;0.75;0.50;;;;;;;9.14;67.79;102572.25;5042463;28;20394;-88
2021/12/15 04:21:36;;;;;;;0.30;0.30;;;;;;;9.13;68.62;102570.50;5044985;28;20039;-88
2021/12/15 04:24:02;;;;;;;0.43;0.32;;;;;;;9.17;68.40;102572.28;5008179;28;20616;-88
2021/12/15 04:26:28;;;;;;;0.20;0.20;;;;;;;9.13;67.88;102582.56;5049567;28;20071;-91
2021/12/15 04:29:00;;;;;;;0.60;0.40;;;;;;;9.14;67.94;102572.25;5023154;28;20047;-91
2021/12/15 04:31:37;;;;;;;0.90;0.40;;;;;;;9.20;67.30;102584.41;5010356;28;20441;-85
2021/12/15 04:34:10;;;;;;;0.77;0.40;;;;;;;9.18;67.75;102583.53;5026517;28;20108;-85
2021/12/15 04:36:42;;;;;;;0.52;0.40;;;;;;;9.15;68.08;102584.38;5044537;28;20040;-85
2021/12/15 04:39:10;;;;;;;0.90;0.60;;;;;;;9.15;68.70;102580.91;5006827;28;20091;-88
2021/12/15 04:41:54;;;;;;;0.30;0.30;;;;;;;9.23;68.31;102585.34;5020861;28;20721;-85
2021/12/15 04:44:27;;;;;;;1.00;0.70;;;;;;;9.13;68.96;102587.75;5004729;28;20041;-86
2021/12/15 04:47:13;;;;;;;1.08;0.60;;;;;;;9.19;68.71;102586.13;5002170;28;20818;-85
2021/12/15 04:50:02;;;;;;;2.05;0.68;;;;;;;9.10;69.58;102583.41;5020385;28;20037;-85
2021/12/15 04:52:54;;;;;;;1.50;0.75;;;;;;;9.11;69.03;102576.50;4996794;28;20064;-85
2021/12/15 04:55:33;;;;;;;3.13;0.77;;;;;;;9.13;68.95;102588.63;4995226;28;20033;-88
2021/12/15 04:58:01;;;;;;;4.32;1.35;;;;;;;9.10;68.87;102580.81;5026690;28;20045;-88
2021/12/15 05:00:45;;;;;;;1.45;0.90;;;;;;;9.17;68.42;102585.25;5042792;28;20064;-88
2021/12/15 05:03:38;;;;;;;1.42;0.90;;;;;;;9.15;69.09;102591.25;5015355;28;20017;-88
2021/12/15 05:06:07;;;;;;;1.60;1.00;;;;;;;9.08;68.49;102594.59;5019423;28;20038;-85
2021/12/15 05:08:36;;;;;;;1.05;0.73;;;;;;;9.08;68.65;102597.19;5047187;28;20686;-85
2021/12/15 05:11:04;;;;;;;1.48;0.82;;;;;;;9.23;68.39;102593.09;5023946;28;20553;-85
2021/12/15 05:13:30;;;;;;;1.85;1.10;;;;;;;8.99;68.78;102592.75;5042535;28;20055;-85
2021/12/15 05:15:56;;;;;;;1.20;0.90;;;;;;;9.09;68.43;102594.66;5027860;28;20052;-85
2021/12/15 05:18:21;;;;;;;3.05;0.88;;;;;;;9.14;68.41;102589.50;5023998;28;20067;-85
2021/12/15 05:20:52;;;;;;;1.50;0.95;;;;;;;9.24;68.22;102588.78;5028694;28;20041;-85
2021/12/15 05:23:28;;;;;;;1.02;0.82;;;;;;;9.16;68.98;102603.34;5030614;28;20110;-85
2021/12/15 05:26:03;;;;;;;2.88;0.80;;;;;;;9.17;69.08;102598.22;5043008;28;20047;-85
2021/12/15 05:29:01;;;;;;;2.13;1.20;;;;;;;9.21;68.87;102599.13;5024366;28;20045;-85
2021/12/15 05:31:33;;;;;;;3.63;0.98;;;;;;;9.06;70.07;102602.38;5022233;28;20045;-86
2021/12/15 05:34:15;;;;;;;1.27;0.82;;;;;;;9.26;68.88;102602.66;4999115;28;20541;-86
2021/12/15 05:37:02;;;;;;;1.75;1.10;;;;;;;9.19;69.23;102600.81;5011754;28;20038;-86
2021/12/15 05:40:06;;;;;;;1.70;1.10;;;;;;;9.18;69.28;102617.25;4986167;28;20049;-86
2021/12/15 05:42:58;;;;;;;2.35;1.27;;;;;;;9.22;69.25;102616.41;4999199;28;20135;-86
2021/12/15 05:45:29;;;;;;;2.28;1.27;;;;;;;9.13;69.38;102622.34;5009981;28;20036;-86
2021/12/15 05:47:56;;;;;;;5.68;2.00;;;;;;;9.10;69.53;102627.47;5006912;28;20120;-87
2021/12/15 05:51:01;;;;;;;2.25;1.02;;;;;;;9.11;69.55;102624.06;5026309;28;20753;-86
2021/12/15 05:53:26;;;;;;;2.90;1.50;;;;;;;9.15;69.52;102627.56;5015713;28;20057;-87
2021/12/15 05:55:52;;;;;;;2.10;1.27;;;;;;;9.20;69.25;102628.50;4999309;28;20041;-87
2021/12/15 05:58:17;;;;;;;2.15;1.33;;;;;;;9.20;69.20;102628.50;5023301;28;20037;-86
2021/12/15 06:00:44;;;;;;;2.80;1.10;;;;;;;9.17;68.98;102637.09;5031279;28;20459;-86
2021/12/15 06:03:13;;;;;;;1.92;1.15;;;;;;;9.20;69.18;102638.84;4986279;28;20079;-88
2021/12/15 06:05:39;;;;;;;7.00;1.25;;;;;;;9.07;69.31;102635.22;4966119;28;20045;-88
2021/12/15 06:08:37;;;;;;;2.38;1.30;;;;;;;9.23;68.67;102634.59;5045120;28;20565;-88
2021/12/15 06:11:03;;;;;;;1.65;1.00;;;;;;;9.24;69.25;102641.53;5016903;28;20072;-88
2021/12/15 06:13:30;;;;;;;1.77;1.00;;;;;;;9.28;68.54;102643.31;5048827;28;20498;-88
2021/12/15 06:16:42;;;;;;;;;;;;;;;;;;;;;
2021/12/15 06:19:10;;;;;;;2.08;1.25;;;;;;;9.17;69.78;102651.78;5030352;28;20047;-89
2021/12/15 06:21:44;;;;;;;2.03;1.10;;;;;;;9.27;69.46;102649.38;5015420;28;20063;-88
2021/12/15 06:24:12;;;;;;;2.25;1.30;;;;;;;9.19;69.87;102647.47;5016770;28;20033;-88
2021/12/15 06:26:38;;;;;;;4.97;1.60;;;;;;;9.17;70.22;102649.19;5017739;28;20052;-88
2021/12/15 06:29:04;;;;;;;2.15;1.25;;;;;;;9.22;70.76;102650.13;5028358;28;20033;-88
2021/12/15 06:31:30;;;;;;;2.58;1.65;;;;;;;9.20;71.07;102650.13;5044774;28;20037;-88
2021/12/15 06:33:55;;;;;;;4.30;2.22;;;;;;;9.21;70.81;102649.28;5012861;28;20037;-85
2021/12/15 06:36:21;;;;;;;2.63;1.75;;;;;;;9.19;70.67;102650.06;5016671;28;20033;-85
2021/12/15 06:38:53;;;;;;;2.15;1.13;;;;;;;9.11;71.17;102652.56;5026767;28;20032;-85
2021/12/15 06:41:19;;;;;;;2.00;1.27;;;;;;;9.11;71.25;102654.28;5022770;28;20729;-85
2021/12/15 06:43:56;;;;;;;2.30;1.17;;;;;;;9.10;71.44;102648.22;5025025;28;20041;-85
2021/12/15 06:58:36;;;;;;;1.30;1.10;;;;;;;8.87;70.91;102659.97;5039869;28;20043;-92
2021/12/15 07:01:07;;;;;;;2.20;1.40;;;;;;;8.99;70.97;102667.06;5037267;28;20486;-92
2021/12/15 07:03:33;;;;;;;3.60;1.40;;;;;;;8.94;70.91;102661.81;5029938;28;20040;-92
2021/12/15 07:05:59;;;;;;;2.08;1.25;;;;;;;8.92;69.95;102660.91;5028750;28;20351;-91
2021/12/15 07:08:29;;;;;;;1.63;1.30;;;;;;;9.07;70.02;102666.31;5023655;28;20750;-87
2021/12/15 07:10:56;;;;;;;1.60;1.10;;;;;;;8.91;71.01;102666.06;5023295;28;20037;-87
2021/12/15 07:13:38;;;;;;;2.08;1.08;;;;;;;8.98;70.99;102668.75;5051401;28;20479;-87
2021/12/15 07:16:07;;;;;;;2.40;1.25;;;;;;;9.11;70.28;102664.66;5036315;28;20037;-87
2021/12/15 07:18:41;;;;;;;3.58;1.45;;;;;;;9.10;70.08;102665.50;5027545;28;20564;-85
2021/12/15 07:21:10;;;;;;;1.75;1.10;;;;;;;9.06;70.15;102662.00;5021226;28;20031;-85
2021/12/15 07:23:37;;;;;;;2.38;1.58;;;;;;;9.02;70.65;102670.56;5016239;28;20029;-85
2021/12/15 07:26:06;;;;;;;1.38;0.90;;;;;;;9.03;70.63;102674.91;5021543;28;20041;-87
2021/12/15 07:28:32;;;;;;;2.38;1.13;;;;;;;9.00;70.56;102674.00;5004511;28;20076;-93
2021/12/15 07:30:58;;;;;;;2.88;1.30;;;;;;;9.01;70.08;102673.16;5025570;28;20032;-92
2021/12/15 07:33:23;;;;;;;1.70;1.00;;;;;;;9.03;69.78;102674.91;5030254;28;20445;-86
2021/12/15 07:36:10;;;;;;;1.75;1.20;;;;;;;9.03;70.03;102677.50;5036957;28;20727;-86
2021/12/15 07:39:11;;;;;;;2.22;1.00;;;;;;;8.99;70.71;102683.47;5005645;28;20041;-85
2021/12/15 07:42:03;;;;;;;1.17;1.08;;;;;;;8.97;70.98;102687.78;5003519;28;20075;-85
2021/12/15 07:44:29;;;;;;;2.75;1.38;;;;;;;8.96;70.70;102687.75;5030653;28;20122;-90
2021/12/15 07:46:54;;;;;;;2.08;1.20;;;;;;;9.00;70.75;102692.13;5016944;28;20457;-87
2021/12/15 07:50:07;;;;;;;4.35;1.92;;;;;;;9.01;70.29;102693.91;5020315;28;20068;-89
2021/12/15 07:55:17;;;;;;;2.72;1.25;;;;;;;9.02;69.81;102704.28;5063756;23;20409;-86
2021/12/15 07:58:40;;;;;;;4.65;1.88;;;;;;;9.10;69.78;102706.97;5071617;28;20037;-86
2021/12/15 08:01:06;;;;;;;4.60;1.98;;;;;;;9.04;70.68;102701.72;5054166;28;20043;-86
2021/12/15 08:03:35;;;;;;;3.63;1.80;;;;;;;9.14;69.91;102707.06;5040065;28;20414;-86
2021/12/15 08:06:01;;;;;;;2.15;1.50;;;;;;;9.03;70.64;102708.63;5030268;28;20028;-86
2021/12/15 08:08:27;;;;;;;5.78;1.65;;;;;;;9.06;70.76;102710.38;5036015;28;20492;-86
2021/12/15 08:10:56;;;;;;;2.20;1.38;;;;;;;8.99;71.46;102701.63;5066680;28;20127;-86
2021/12/15 08:13:30;;;;;;;2.75;1.55;;;;;;;9.13;70.91;102694.06;5056304;28;20055;-86
2021/12/15 08:15:56;;;;;;;2.47;1.50;;;;;;;9.08;70.58;102704.38;5009740;28;20765;-86
2021/12/15 08:18:23;;;;;;;3.17;2.15;;;;;;;9.07;70.57;102707.81;5025699;28;20041;-86
2021/12/15 08:20:50;;;;;;;3.47;2.15;;;;;;;9.17;70.27;102709.69;5043282;28;20029;-86
2021/12/15 08:23:16;;;;;;;2.60;1.92;;;;;;;9.22;70.22;102708.03;5033938;28;20090;-86
2021/12/15 08:25:42;;;;;;;3.10;1.42;;;;;;;9.10;70.74;102714.75;5060281;28;20029;-86
2021/12/15 08:28:08;;;;;;;5.22;2.00;;;;;;;9.08;70.08;102717.34;5038520;28;20040;-86
2021/12/15 08:30:34;;;;;;;3.30;1.90;;;;;;;9.06;70.48;102719.03;5061092;28;20029;-86
2021/12/15 08:33:05;;;;;;;3.70;2.17;;;;;;;9.05;70.43;102714.69;5043722;28;20526;-86
2021/12/15 08:35:35;;;;;;;3.83;1.88;;;;;;;9.22;69.63;102714.94;5043930;28;20036;-86
2021/12/15 08:38:03;;;;;;;5.60;2.42;;;;;;;9.24;69.30;102724.53;5060500;28;20036;-86
2021/12/15 08:40:28;;;;;;;4.93;2.33;;;;;;;9.20;69.74;102717.53;5046575;28;20036;-86
2021/12/15 08:42:55;;;;;;;5.43;2.50;;;;;;;9.20;69.76;102721.84;5057919;28;20423;-86
2021/12/15 08:45:22;;;;;;;4.93;2.13;;;;;;;9.24;69.90;102721.94;5063732;28;20114;-86
2021/12/15 08:47:48;;;;;;;3.85;2.25;;;;;;;9.23;70.22;102729.66;5044569;28;20086;-86
2021/12/15 08:50:17;;;;;;;5.22;2.50;;;;;;;9.32;70.97;102724.63;5046600;28;20040;-86
2021/12/15 08:52:43;;;;;;;4.38;2.50;;;;;;;9.14;71.14;102721.75;5061503;28;20040;-86
2021/12/15 08:55:09;;;;;;;5.93;2.45;;;;;;;9.15;71.75;102724.38;5044641;28;20048;-87
2021/12/15 08:57:36;;;;;;;3.88;2.35;;;;;;;9.15;71.84;102724.38;5041061;28;20037;-87
2021/12/15 09:00:05;;;;;;;5.28;2.42;;;;;;;9.14;72.31;102737.28;5039780;28;20025;-87
2021/12/15 09:02:30;;;;;;;4.10;1.85;;;;;;;9.19;72.09;102727.84;5040053;28;20044;-87
2021/12/15 09:04:56;;;;;;;4.70;2.60;;;;;;;9.26;72.17;102728.00;5033043;28;20032;-87
2021/12/15 09:07:22;;;;;;;5.40;2.08;;;;;;;9.24;72.55;102723.66;5046826;28;20040;-87
2021/12/15 09:09:48;;;;;;;7.15;2.72;;;;;;;9.21;72.32;102727.06;5029057;28;20029;-87
2021/12/15 09:12:18;;;;;;;5.63;2.28;;;;;;;9.17;72.03;102719.19;5055342;28;20042;-87
2021/12/15 09:14:44;;;;;;;4.53;2.83;;;;;;;9.19;72.51;102720.09;5030584;28;20036;-87
2021/12/15 09:17:09;;;;;;;7.45;3.15;;;;;;;9.17;72.71;102721.78;5043095;28;20033;-87
2021/12/15 09:19:35;;;;;;;5.70;2.55;;;;;;;9.16;72.34;102720.03;5040488;28;20036;-87
2021/12/15 09:22:09;;;;;;;5.63;2.33;;;;;;;9.28;72.40;102730.59;5045953;28;20036;-87
2021/12/15 09:24:35;;;;;;;4.20;2.13;;;;;;;9.28;72.02;102736.66;5035683;28;20086;-88
2021/12/15 09:27:08;;;;;;;6.30;2.55;;;;;;;9.28;72.49;102739.25;5041793;28;20035;-88
2021/12/15 09:29:39;;;;;;;5.18;2.17;;;;;;;9.20;72.42;102733.09;5047313;28;20032;-87
2021/12/15 09:32:05;;;;;;;5.22;2.30;;;;;;;9.30;72.19;102740.19;5043124;28;20436;-87
2021/12/15 09:34:35;;;;;;;6.22;2.05;;;;;;;9.24;72.18;102734.00;5033908;28;20036;-87
2021/12/15 09:37:04;;;;;;;5.60;2.38;;;;;;;9.25;71.80;102728.84;5035164;28;20032;-88
2021/12/15 09:39:31;;;;;;;3.47;1.95;;;;;;;9.30;71.87;102739.31;5045239;28;20035;-88
2021/12/15 09:41:59;;;;;;;4.15;2.17;;;;;;;9.36;71.88;102734.22;5042541;28;20032;-88
2021/12/15 09:44:26;;;;;;;3.83;1.92;;;;;;;9.30;72.16;102742.78;5031627;28;20059;-88
2021/12/15 09:47:14;;;;;;;3.10;1.92;;;;;;;9.32;72.42;102737.59;5028907;28;20055;-88
2021/12/15 10:03:26;;;;;;;4.82;1.63;;;;;;;9.39;71.60;102742.03;5052362;28;20050;-88
2021/12/15 10:06:02;;;;;;;3.20;1.80;;;;;;;9.38;72.51;102739.41;5060929;28;20020;-88
2021/12/15 10:17:24;;;;;;;3.15;1.75;;;;;;;9.51;72.31;102743.94;5006755;28;20053;-88
2021/12/15 10:20:03;;;;;;;3.75;1.60;;;;;;;9.52;71.15;102743.06;5060806;28;20289;-88
2021/12/15 10:22:45;;;;;;;3.00;1.58;;;;;;;9.55;71.29;102740.53;5046440;28;20028;-88
2021/12/15 10:25:24;;;;;;;4.70;1.75;;;;;;;9.51;71.42;102738.75;5046239;28;20385;-88
2021/12/15 10:27:52;;;;;;;2.00;1.40;;;;;;;9.63;71.59;102738.94;5052561;28;20085;-88
2021/12/15 10:30:31;;;;;;;3.70;1.77;;;;;;;9.63;71.79;102734.59;5065736;28;20504;-88
2021/12/15 10:33:07;;;;;;;3.20;1.83;;;;;;;9.58;70.84;102740.56;5035742;28;20060;-88
2021/12/15 10:35:41;;;;;;;4.90;2.00;;;;;;;9.58;71.48;102736.25;5041469;28;20048;-88
2021/12/15 10:38:21;;;;;;;4.60;2.25;;;;;;;9.57;70.75;102733.66;5046341;28;20048;-88
2021/12/15 10:41:03;;;;;;;4.25;1.70;;;;;;;9.60;70.90;102731.09;5051447;28;20131;-88
2021/12/15 10:44:02;;;;;;;3.72;1.90;;;;;;;9.78;70.49;102732.19;5051541;28;20571;-88
2021/12/15 10:47:07;;;;;;;2.95;1.80;;;;;;;9.71;71.20;102729.53;5034628;28;20082;-87
2021/12/15 10:50:19;;;;;;;4.13;1.60;;;;;;;9.74;70.87;102734.75;5034896;28;20064;-87
2021/12/15 10:53:01;;;;;;;2.38;1.23;;;;;;;9.69;71.08;102739.88;5050024;28;20041;-87
2021/12/15 10:55:43;;;;;;;4.07;1.90;;;;;;;9.74;70.38;102727.84;5050086;28;20036;-87
2021/12/15 10:58:32;;;;;;;6.35;1.38;;;;;;;9.78;70.31;102731.34;5032662;28;20037;-88
2021/12/15 11:01:03;;;;;;;3.90;1.85;;;;;;;9.77;70.34;102727.88;5061801;28;20029;-89
2021/12/15 11:03:35;;;;;;;3.08;1.42;;;;;;;9.73;70.99;102733.88;5051607;28;20064;-88
2021/12/15 11:06:18;;;;;;;4.45;2.05;;;;;;;9.76;70.56;102733.03;5051827;28;20601;-88
2021/12/15 11:08:44;;;;;;;2.28;1.60;;;;;;;9.82;70.13;102728.81;5030526;28;20035;-88
2021/12/15 11:11:23;;;;;;;4.88;2.08;;;;;;;9.76;70.39;102727.84;5029347;28;20041;-88
2021/12/15 11:13:49;;;;;;;5.72;1.63;;;;;;;9.80;70.12;102721.84;5066646;28;20428;-88
2021/12/15 11:16:14;;;;;;;2.72;1.30;;;;;;;9.80;70.35;102733.13;5030859;28;20086;-88
2021/12/15 11:18:40;;;;;;;2.95;1.65;;;;;;;9.83;69.68;102721.91;5066608;28;20397;-88
2021/12/15 11:21:12;;;;;;;2.33;1.58;;;;;;;9.89;69.35;102730.69;5044630;28;20107;-88
2021/12/15 11:23:37;;;;;;;4.90;1.52;;;;;;;9.90;69.86;102721.13;5051204;28;20057;-88
2021/12/15 11:26:11;;;;;;;3.88;1.92;;;;;;;9.84;69.96;102727.09;5045260;28;20485;-88
2021/12/15 11:28:46;;;;;;;5.55;1.85;;;;;;;9.85;70.06;102722.78;5069657;28;20480;-88
2021/12/15 11:31:24;;;;;;;3.70;1.98;;;;;;;9.85;70.35;102717.59;5047601;28;20111;-88
2021/12/15 11:34:00;;;;;;;1.73;1.33;;;;;;;9.82;69.77;102725.34;5045809;28;20036;-88
2021/12/15 11:36:36;;;;;;;1.77;1.35;;;;;;;9.82;70.64;102722.75;5044170;28;20037;-88
2021/12/15 11:39:02;;;;;;;3.78;2.03;;;;;;;9.87;69.83;102714.16;5073387;28;20043;-88
2021/12/15 11:41:39;;;;;;;3.65;1.50;;;;;;;9.86;69.82;102724.53;5043751;28;20033;-88
2021/12/15 11:44:07;;;;;;;6.55;1.73;;;;;;;9.83;70.59;102708.91;5046870;28;20037;-88
2021/12/15 11:46:46;;;;;;;2.97;1.60;;;;;;;9.86;70.02;102706.38;5049245;28;20055;-89
2021/12/15 11:49:22;;;;;;;3.10;1.52;;;;;;;9.92;69.82;102703.88;5046799;28;20036;-88
2021/12/15 11:51:57;;;;;;;2.65;1.90;;;;;;;9.87;70.20;102706.38;5030373;28;20063;-88
2021/12/15 11:54:48;;;;;;;4.45;2.00;;;;;;;9.86;70.60;102706.38;5063694;28;20036;-88
2021/12/15 11:57:18;;;;;;;5.93;2.10;;;;;;;9.90;70.50;102708.16;5049020;28;20110;-89
2021/12/15 11:59:49;;;;;;;4.03;1.80;;;;;;;9.81;70.78;102701.09;5031695;28;20029;-92
2021/12/15 12:02:31;;;;;;;7.90;3.22;;;;;;;9.84;70.74;102701.13;5060706;28;20094;-91
2021/12/15 12:05:06;;;;;;;7.80;3.05;;;;;;;9.79;71.31;102701.94;5032328;28;20040;-91
2021/12/15 12:07:36;;;;;;;;;;;;;;;9.81;71.17;102701.09;5065144;28;20044;-91
2021/12/15 12:10:11;;;;;;;5.50;2.40;;;;;;;9.84;71.28;102708.06;5048213;28;19958;-91
2021/12/15 12:12:41;;;;;;;;;;;;;;;9.85;71.54;102704.59;5065748;28;20028;-91
2021/12/15 12:15:12;;;;;;;5.10;2.35;;;;;;;9.79;72.33;102701.94;5044631;28;19912;-90
2021/12/15 12:17:39;;;;;;;7.75;2.47;;;;;;;9.82;71.33;102702.84;5048913;28;20439;-91
2021/12/15 12:20:13;;;;;;;5.85;2.42;;;;;;;9.83;71.77;102698.53;5065645;28;20527;-91
2021/12/15 12:22:40;;;;;;;4.65;1.50;;;;;;;9.88;71.05;102689.94;5064833;28;20036;-90
2021/12/15 12:25:10;;;;;;;5.00;1.80;;;;;;;9.90;70.69;102697.78;5046806;28;20039;-90
2021/12/15 12:27:38;;;;;;;3.30;1.50;;;;;;;9.93;70.78;102697.81;5047652;28;20082;-89
2021/12/15 12:30:11;;;;;;;3.97;1.50;;;;;;;9.88;71.03;102697.75;5047014;28;20032;-91
2021/12/15 12:32:39;;;;;;;2.10;1.33;;;;;;;9.89;71.51;102701.22;5047501;28;20040;-91
2021/12/15 12:35:08;;;;;;;2.75;1.75;;;;;;;9.95;70.86;102695.25;5062817;28;20045;-90
2021/12/15 12:37:34;;;;;;;3.00;1.45;;;;;;;9.95;70.57;102698.72;5046732;28;20032;-91
2021/12/15 12:40:08;;;;;;;2.35;1.38;;;;;;;9.90;70.75;102698.66;5064737;28;20050;-91
2021/12/15 12:42:40;;;;;;;2.42;1.38;;;;;;;9.93;71.04;102696.97;5041473;28;20523;-91
2021/12/15 12:45:13;;;;;;;3.05;1.10;;;;;;;9.93;71.11;102692.63;5061094;28;20031;-90
2021/12/15 12:47:46;;;;;;;2.83;1.50;;;;;;;9.91;70.84;102683.97;5042929;28;20071;-90
2021/12/15 13:01:17;;;;;;;1.52;0.98;;;;;;;9.88;70.70;102689.06;5051225;28;20041;-90
2021/12/15 13:03:54;;;;;;;1.73;0.80;;;;;;;9.90;70.61;102684.78;5052563;28;20052;-90
2021/12/15 13:06:25;;;;;;;1.92;1.23;;;;;;;9.90;71.10;102682.19;5062316;28;20037;-90
2021/12/15 13:09:04;;;;;;;1.92;1.10;;;;;;;9.86;72.08;102686.47;5036491;28;20086;-90
2021/12/15 13:11:38;;;;;;;2.30;1.10;;;;;;;9.86;71.23;102683.00;5045236;28;20390;-91
2021/12/15 13:14:12;;;;;;;3.45;1.30;;;;;;;9.84;72.16;102688.16;5049462;28;20044;-91
2021/12/15 13:16:52;;;;;;;3.00;1.25;;;;;;;9.92;71.55;102684.84;5039611;28;21094;-90
2021/12/15 13:19:34;;;;;;;1.80;1.10;;;;;;;9.85;71.42;102686.44;5044942;28;20123;-90
2021/12/15 13:30:39;;;;;;;7.63;2.38;;;;;;;9.87;71.76;102679.53;5061838;28;20061;-91
2021/12/15 13:33:13;;;;;;;6.15;2.28;;;;;;;9.89;72.63;102681.34;5050533;28;20029;-91
2021/12/15 13:35:51;;;;;;;7.93;2.83;;;;;;;9.88;72.69;102676.97;5059980;28;20051;-92
2021/12/15 13:38:29;;;;;;;5.05;2.53;;;;;;;9.90;72.74;102674.41;5044864;28;20052;-92
2021/12/15 13:41:10;;;;;;;3.97;2.45;;;;;;;9.93;72.22;102665.81;5040832;28;20046;-93
2021/12/15 13:43:40;;;;;;;7.05;2.33;;;;;;;9.96;72.18;102671.88;5045007;28;20040;-92
2021/12/15 13:46:21;;;;;;;5.55;2.40;;;;;;;9.93;72.28;102666.66;5035762;28;20058;-91
2021/12/15 13:49:31;;;;;;;6.00;2.28;;;;;;;9.92;72.58;102670.13;5046988;28;20041;-92
2021/12/15 13:52:00;;;;;;;3.97;2.03;;;;;;;9.90;72.72;102669.22;5032930;28;20036;-92
2021/12/15 13:54:37;;;;;;;7.38;3.03;;;;;;;9.90;72.08;102671.81;5048860;28;20040;-92
2021/12/15 13:57:11;;;;;;;4.03;2.28;;;;;;;9.91;72.17;102673.56;5059140;28;20024;-92
2021/12/15 13:59:44;;;;;;;4.15;2.35;;;;;;;9.87;72.62;102672.63;5051875;28;20024;-91
2021/12/15 14:02:11;;;;;;;5.38;2.42;;;;;;;9.83;72.73;102673.47;5052170;28;20504;-91
2021/12/15 14:04:49;;;;;;;4.97;2.38;;;;;;;9.89;72.64;102664.88;5027121;28;20393;-91
2021/12/15 14:07:30;;;;;;;4.72;2.22;;;;;;;9.87;71.69;102671.75;5025617;28;20068;-92
2021/12/15 14:09:56;;;;;;;5.68;2.65;;;;;;;9.84;72.01;102663.91;5050942;28;20040;-91
2021/12/15 14:12:47;;;;;;;7.38;2.45;;;;;;;9.94;72.25;102662.34;5042078;28;20037;-91
2021/12/15 14:15:16;;;;;;;7.78;3.08;;;;;;;9.92;72.07;102670.13;5050768;28;20028;-91
2021/12/15 14:17:45;;;;;;;6.50;2.67;;;;;;;9.86;71.67;102675.22;5035311;28;20032;-91
2021/12/15 14:20:16;;;;;;;5.35;2.75;;;;;;;9.88;72.50;102686.47;5054013;28;20037;-91
2021/12/15 14:22:43;;;;;;;9.52;3.22;;;;;;;9.86;72.14;102678.69;5043848;28;20389;-91